Time;durP1;ratioP1;P1;durP2;ratioP2;P2;SDS_P1;SDS_P2;PMS_P1;PMS_P2;Temp;Humidity;BMP_temperature;BMP_pressure;BME280_temperature;BME280_humidity;BME280_pressure;Samples;Min_cycle;Max_cycle;Signal;HPM_P1;HPM_P2
2022/03/08 08:00:59;;;;;;;19.23;9.23;;;;;;;2.13;63.51;101129.09;4986685;28;106143;-68
2022/03/08 08:03:25;;;;;;;17.83;8.30;;;;;;;2.29;63.69;101129.00;4986339;28;106080;-69
2022/03/08 08:05:50;;;;;;;14.27;7.88;;;;;;;2.49;63.88;101124.31;4984306;28;115802;-74
2022/03/08 08:08:15;;;;;;;21.45;8.73;;;;;;;2.64;63.93;101118.09;4984989;28;106050;-71
2022/03/08 08:10:40;;;;;;;24.08;9.60;;;;;;;2.87;63.75;101113.16;4984766;28;106032;-70
2022/03/08 08:13:06;;;;;;;24.00;10.95;;;;;;;3.07;63.62;101129.47;4985870;28;106342;-74
2022/03/08 08:15:31;;;;;;;22.90;10.18;;;;;;;3.19;63.66;101121.63;4984296;28;106231;-72
2022/03/08 08:17:57;;;;;;;21.83;8.32;;;;;;;3.39;63.44;101116.84;4984044;28;106118;-70
2022/03/08 08:20:22;;;;;;;20.30;9.70;;;;;;;3.56;62.92;101111.28;4984291;28;106066;-72
2022/03/08 08:22:48;;;;;;;18.00;9.05;;;;;;;3.77;62.86;101118.69;4964038;28;106446;-73
2022/03/08 08:25:13;;;;;;;20.20;9.82;;;;;;;3.93;62.77;101112.41;4962513;28;106362;-71
2022/03/08 08:27:39;;;;;;;21.48;9.88;;;;;;;4.05;62.47;101117.69;4961973;28;106038;-70
2022/03/08 08:30:07;;;;;;;18.00;9.32;;;;;;;4.28;62.86;101112.63;4960343;28;109487;-71
2022/03/08 08:32:32;;;;;;;15.73;7.53;;;;;;;4.50;62.55;101116.41;4962538;28;106411;-67
2022/03/08 08:34:58;;;;;;;22.25;9.55;;;;;;;4.76;61.98;101109.25;4961954;28;106248;-71
2022/03/08 08:37:23;;;;;;;17.52;7.70;;;;;;;5.00;61.30;101119.88;4961756;28;111494;-72
2022/03/08 08:39:48;;;;;;;14.35;8.38;;;;;;;5.23;60.90;101117.31;4963974;28;107089;-72
2022/03/08 08:42:14;;;;;;;19.25;8.30;;;;;;;5.28;60.32;101107.28;4964700;28;106582;-72
2022/03/08 08:44:39;;;;;;;20.98;8.43;;;;;;;5.30;60.55;101110.63;4963743;28;105819;-73
2022/03/08 08:47:04;;;;;;;17.45;8.60;;;;;;;5.32;60.03;101111.38;4962352;28;116365;-71
2022/03/08 08:49:30;;;;;;;15.65;7.07;;;;;;;5.36;59.71;101109.34;4962773;28;106343;-71
2022/03/08 08:51:56;;;;;;;16.27;8.45;;;;;;;5.42;59.61;101115.00;4964970;28;105845;-71
2022/03/08 08:54:22;;;;;;;17.58;7.45;;;;;;;5.69;59.90;101103.31;4964509;28;106169;-70
2022/03/08 08:56:47;;;;;;;17.20;8.98;;;;;;;5.94;59.12;101106.75;4964259;28;106089;-70
2022/03/08 08:59:13;;;;;;;13.55;7.80;;;;;;;6.22;58.36;101105.50;4967770;28;106531;-70
2022/03/08 09:01:38;;;;;;;17.52;8.05;;;;;;;7.05;59.17;101106.00;4975323;28;105968;-70
2022/03/08 09:04:04;;;;;;;16.48;6.28;;;;;;;10.89;62.05;101099.41;4973829;28;106116;-70
2022/03/08 09:06:29;;;;;;;12.48;6.72;;;;;;;13.44;57.47;101094.72;4983868;28;105956;-72
2022/03/08 09:08:58;;;;;;;14.05;6.85;;;;;;;16.51;54.07;101093.63;4983834;28;106278;-73
2022/03/08 09:11:25;;;;;;;12.90;7.05;;;;;;;20.18;50.29;101093.09;4976589;28;105940;-71
2022/03/08 09:13:50;;;;;;;11.05;6.05;;;;;;;21.12;42.91;101092.72;4970919;28;105878;-72
2022/03/08 09:16:16;;;;;;;10.70;6.25;;;;;;;19.94;38.45;101100.84;4960627;28;105911;-72
2022/03/08 09:18:43;;;;;;;11.70;5.65;;;;;;;17.66;36.03;101104.56;4950759;28;106600;-70
2022/03/08 09:21:10;;;;;;;17.10;6.93;;;;;;;17.25;39.23;101103.38;4959483;28;106263;-68
2022/03/08 09:23:36;;;;;;;11.05;6.47;;;;;;;17.11;38.69;101103.41;4963228;28;105921;-71
2022/03/08 09:26:01;;;;;;;13.57;6.93;;;;;;;16.00;38.26;101115.00;4960864;28;106767;-72
2022/03/08 09:28:27;;;;;;;11.90;7.35;;;;;;;15.28;38.63;101105.53;4969997;28;106266;-71
2022/03/08 09:30:52;;;;;;;16.67;8.18;;;;;;;15.97;39.06;101120.75;4971022;28;105964;-74
2022/03/08 09:33:17;;;;;;;15.77;8.80;;;;;;;15.24;37.15;101107.75;4970461;28;106321;-73
2022/03/08 09:35:43;;;;;;;12.85;9.07;;;;;;;16.63;38.42;101109.25;4970315;28;106478;-70
2022/03/08 09:38:11;;;;;;;17.25;9.20;;;;;;;18.56;38.06;101109.28;4970072;28;113683;-71
2022/03/08 09:40:37;;;;;;;15.48;7.88;;;;;;;22.44;34.59;101096.38;4970477;28;106192;-75
2022/03/08 09:43:03;;;;;;;13.65;8.60;;;;;;;22.68;29.72;101104.63;4970536;28;105999;-73
2022/03/08 09:45:28;;;;;;;18.48;7.63;;;;;;;25.54;28.38;101105.03;4970241;28;105993;-71
2022/03/08 09:47:53;;;;;;;15.82;8.85;;;;;;;28.70;24.52;101108.72;4969962;28;106040;-72
2022/03/08 09:50:19;;;;;;;11.52;7.38;;;;;;;30.19;21.52;101101.56;4970625;28;105811;-69
2022/03/08 09:52:45;;;;;;;10.45;6.90;;;;;;;32.10;19.65;101095.50;4970140;28;106122;-71
2022/03/08 09:55:14;;;;;;;13.13;7.30;;;;;;;33.38;17.82;101097.59;4969950;28;105999;-66
2022/03/08 09:57:40;;;;;;;10.33;6.27;;;;;;;35.05;16.33;101092.81;4969307;28;106050;-68
2022/03/08 10:00:07;;;;;;;12.65;7.57;;;;;;;35.89;15.50;101095.94;4969716;28;105913;-71
2022/03/08 10:02:51;;;;;;;11.77;7.28;;;;;;;35.01;15.00;101094.59;4969222;28;106084;-71
2022/03/08 10:05:40;;;;;;;14.77;6.60;;;;;;;34.11;15.55;101097.91;4962799;28;106364;-70
2022/03/08 10:08:10;;;;;;;12.70;7.00;;;;;;;36.26;14.56;101092.94;4957402;28;107409;-70
2022/03/08 10:10:55;;;;;;;10.80;6.20;;;;;;;37.51;13.16;101096.22;4957453;28;106051;-71
2022/03/08 10:13:23;;;;;;;8.32;5.75;;;;;;;38.07;12.38;101093.38;4958509;28;105877;-73
2022/03/08 10:16:07;;;;;;;11.32;6.68;;;;;;;33.46;13.85;101090.56;4958369;28;106042;-72
2022/03/08 10:18:59;;;;;;;14.18;7.18;;;;;;;29.56;16.22;101101.97;4958649;28;106026;-70
2022/03/08 10:21:31;;;;;;;10.60;6.22;;;;;;;26.26;18.50;101106.13;4964808;28;106343;-73
2022/03/08 10:23:58;;;;;;;17.55;6.93;;;;;;;23.95;19.85;101102.75;4968893;28;105791;-74
2022/03/08 10:26:24;;;;;;;12.23;6.78;;;;;;;22.13;20.73;101098.16;4969241;28;105974;-75
2022/03/08 10:28:51;;;;;;;9.85;6.50;;;;;;;21.42;21.35;101092.94;4968330;28;106062;-74
2022/03/08 10:31:17;;;;;;;7.95;6.20;;;;;;;20.86;21.66;101097.25;4960892;28;106040;-73
2022/03/08 10:33:43;;;;;;;9.63;6.72;;;;;;;22.96;19.85;101085.88;4950016;28;106028;-75
2022/03/08 10:36:21;;;;;;;10.50;6.47;;;;;;;23.73;18.54;101083.41;4949402;28;105989;-65
2022/03/08 10:39:07;;;;;;;9.65;6.22;;;;;;;25.36;17.70;101088.91;4949493;28;106418;-69
2022/03/08 10:41:32;;;;;;;10.90;6.20;;;;;;;26.02;16.81;101089.94;4950747;28;105927;-73
2022/03/08 10:43:58;;;;;;;8.82;6.35;;;;;;;27.74;15.78;101085.19;4949960;28;106185;-70
2022/03/08 10:46:25;;;;;;;10.75;6.32;;;;;;;30.81;14.15;101085.63;4948481;28;106013;-72
2022/03/08 10:48:53;;;;;;;10.60;5.20;;;;;;;30.93;13.75;101079.75;4953552;28;106172;-72
2022/03/08 10:51:19;;;;;;;8.80;5.20;;;;;;;33.56;12.68;101084.88;4949255;28;106070;-74
2022/03/08 10:53:44;;;;;;;11.95;5.70;;;;;;;36.98;11.03;101071.31;4947440;28;117979;-76
2022/03/08 10:56:10;;;;;;;15.43;6.88;;;;;;;39.28;9.78;101064.94;4949615;28;107305;-75
2022/03/08 10:58:53;;;;;;;13.93;7.50;;;;;;;40.78;8.41;101065.31;4949619;28;106216;-81
2022/03/08 11:01:19;;;;;;;10.82;5.72;;;;;;;41.19;8.67;101065.22;4950091;28;106069;-73
2022/03/08 11:03:56;;;;;;;10.05;5.70;;;;;;;41.69;8.16;101068.50;4950238;28;106026;-72
2022/03/08 11:06:23;;;;;;;8.45;5.65;;;;;;;41.55;8.64;101066.16;4949203;28;106353;-72
2022/03/08 11:08:48;;;;;;;15.25;6.90;;;;;;;37.17;10.19;101064.56;4948347;28;106125;-74
2022/03/08 11:11:13;;;;;;;8.45;5.97;;;;;;;33.63;12.08;101052.13;4950289;28;105882;-76
2022/03/08 11:13:40;;;;;;;9.15;5.47;;;;;;;32.39;12.45;101043.06;4954104;28;106112;-75
2022/03/08 11:16:07;;;;;;;8.02;4.93;;;;;;;35.35;10.90;101035.06;4949179;28;105949;-76
2022/03/08 11:18:33;;;;;;;8.48;5.18;;;;;;;38.05;9.41;101032.53;4943600;28;105982;-74
2022/03/08 11:20:59;;;;;;;9.43;5.15;;;;;;;39.76;8.26;101027.13;4939738;28;106010;-72
2022/03/08 11:23:26;;;;;;;8.40;6.35;;;;;;;41.48;7.36;101026.84;4939641;28;106214;-73
2022/03/08 11:25:52;;;;;;;10.43;7.03;;;;;;;42.53;7.07;101024.44;4955421;28;107651;-71
2022/03/08 11:28:19;;;;;;;8.95;6.10;;;;;;;42.95;6.93;101018.03;4948746;28;105981;-75
2022/03/08 11:30:52;;;;;;;12.88;5.72;;;;;;;43.61;6.62;101015.16;4957185;28;106103;-71
2022/03/08 11:33:31;;;;;;;9.98;5.95;;;;;;;44.30;6.35;100999.31;4957635;28;106219;-73
2022/03/08 11:36:15;;;;;;;8.10;5.50;;;;;;;45.12;6.05;101005.00;4957993;28;106112;-74
2022/03/08 11:38:40;;;;;;;13.40;5.78;;;;;;;45.11;6.04;100996.94;4956932;28;105882;-74
2022/03/08 11:41:06;;;;;;;9.25;6.32;;;;;;;45.63;5.31;100991.31;4957590;28;106054;-76
2022/03/08 11:43:42;;;;;;;9.90;5.93;;;;;;;45.88;5.34;100990.72;4958775;28;106171;-77
2022/03/08 11:46:16;;;;;;;10.63;6.00;;;;;;;43.57;5.74;100988.28;4958726;28;106012;-76
2022/03/08 11:49:03;;;;;;;8.90;6.60;;;;;;;42.76;6.17;100978.84;4958247;28;106652;-75
2022/03/08 11:51:31;;;;;;;10.52;6.18;;;;;;;44.03;6.02;100981.69;4961359;28;106063;-74
2022/03/08 11:54:07;;;;;;;9.52;6.35;;;;;;;45.34;5.21;100979.84;4959054;28;106111;-72
2022/03/08 11:56:47;;;;;;;11.13;6.32;;;;;;;45.76;4.94;100986.97;4955645;28;106973;-72
2022/03/08 11:59:13;;;;;;;13.98;7.30;;;;;;;46.23;5.09;100980.78;4954913;28;106248;-78
2022/03/08 12:01:39;;;;;;;9.07;6.13;;;;;;;46.75;4.86;100987.00;4959294;28;106036;-76
2022/03/08 12:04:09;;;;;;;8.20;5.88;;;;;;;46.48;4.42;100985.69;4957098;28;106280;-68
2022/03/08 12:06:38;;;;;;;12.95;6.47;;;;;;;46.36;4.47;100984.88;4957172;28;105977;-66
2022/03/08 12:09:15;;;;;;;10.60;5.63;;;;;;;46.43;4.23;100978.47;4956723;28;105934;-70
2022/03/08 12:11:45;;;;;;;9.52;5.85;;;;;;;46.25;4.67;100978.41;4959251;28;106113;-70
2022/03/08 12:14:23;;;;;;;8.95;5.72;;;;;;;45.41;4.56;100968.69;4954320;28;106167;-70
2022/03/08 12:17:05;;;;;;;12.23;6.35;;;;;;;45.25;4.73;100962.53;4956074;28;107388;-68
2022/03/08 12:19:38;;;;;;;9.85;6.35;;;;;;;45.44;4.76;100956.63;4954581;28;107114;-68
2022/03/08 12:22:18;;;;;;;10.27;6.40;;;;;;;45.94;4.54;100958.16;4959298;28;106121;-70
2022/03/08 12:25:12;;;;;;;10.40;6.70;;;;;;;46.59;3.93;100958.38;4961494;28;106051;-68
2022/03/08 12:27:50;;;;;;;9.52;6.50;;;;;;;46.28;4.29;100955.09;4957991;28;106067;-68
2022/03/08 12:30:15;;;;;;;6.85;5.35;;;;;;;46.41;4.23;100961.97;4955409;28;106122;-73
2022/03/08 12:32:43;;;;;;;13.18;5.72;;;;;;;46.73;3.85;100964.03;4958337;28;106263;-71
2022/03/08 12:35:20;;;;;;;10.73;5.10;;;;;;;47.18;3.96;100954.41;4955826;28;106255;-65
2022/03/08 12:37:56;;;;;;;7.28;5.03;;;;;;;47.32;3.62;100943.09;4955667;28;106891;-70
2022/03/08 12:40:27;;;;;;;10.88;6.90;;;;;;;46.96;3.98;100945.94;4964313;28;105988;-71
2022/03/08 12:43:09;;;;;;;8.73;5.45;;;;;;;47.01;4.04;100939.88;4966196;28;106249;-68
2022/03/08 12:45:40;;;;;;;9.55;5.43;;;;;;;46.73;3.58;100929.41;4967652;28;105928;-66
2022/03/08 12:48:17;;;;;;;9.40;5.50;;;;;;;46.56;3.79;100930.97;4970488;28;105848;-71
2022/03/08 12:50:43;;;;;;;9.65;5.78;;;;;;;46.20;4.05;100936.53;4969906;28;106461;-69
2022/03/08 12:53:12;;;;;;;9.43;5.80;;;;;;;46.12;3.89;100925.25;4970782;28;105867;-68
2022/03/08 12:55:48;;;;;;;8.57;4.95;;;;;;;45.74;3.72;100924.69;4970405;28;106122;-69
2022/03/08 12:58:22;;;;;;;7.70;4.93;;;;;;;45.64;3.84;100922.59;4970087;28;106278;-65
2022/03/08 13:00:56;;;;;;;7.32;4.57;;;;;;;45.41;3.96;100909.63;4970107;28;106177;-72
2022/03/08 13:03:23;;;;;;;10.30;5.00;;;;;;;45.45;3.96;100913.25;4971422;28;106204;-67
2022/03/08 13:06:00;;;;;;;7.20;4.85;;;;;;;44.99;3.76;100902.47;4970705;28;105886;-70
2022/03/08 13:08:28;;;;;;;9.60;5.13;;;;;;;44.47;4.14;100895.97;4970670;28;107029;-68
2022/03/08 13:10:59;;;;;;;7.63;5.17;;;;;;;44.73;3.99;100895.84;4969573;28;106081;-72
2022/03/08 13:13:25;;;;;;;7.18;4.47;;;;;;;44.77;4.13;100904.28;4970716;28;105967;-72
2022/03/08 13:15:51;;;;;;;7.55;5.07;;;;;;;44.74;4.16;100905.91;4970544;28;106003;-74
2022/03/08 13:18:27;;;;;;;9.32;4.50;;;;;;;44.82;3.98;100905.97;4969756;28;106761;-74
2022/03/08 13:20:57;;;;;;;8.82;4.47;;;;;;;44.52;3.91;100904.84;4969554;28;106265;-67
2022/03/08 13:23:25;;;;;;;8.65;4.32;;;;;;;44.48;3.85;100901.19;4970619;28;106304;-70
2022/03/08 13:25:53;;;;;;;6.33;4.20;;;;;;;44.68;3.90;100901.81;4970156;28;106172;-73
2022/03/08 13:28:22;;;;;;;10.57;4.68;;;;;;;44.83;3.84;100902.75;4969930;28;106647;-73
2022/03/08 13:30:50;;;;;;;9.73;5.10;;;;;;;44.50;3.97;100912.88;4969027;28;106100;-70
2022/03/08 13:33:32;;;;;;;8.93;5.30;;;;;;;44.73;3.79;100904.28;4970414;28;105916;-65
2022/03/08 13:36:04;;;;;;;9.07;4.63;;;;;;;44.40;3.81;100903.16;4969433;28;106004;-72
2022/03/08 13:38:33;;;;;;;9.43;5.22;;;;;;;44.43;3.75;100905.19;4969883;28;106370;-69
2022/03/08 13:41:03;;;;;;;17.48;6.35;;;;;;;43.93;3.93;100896.97;4970170;28;106172;-69
2022/03/08 13:43:30;;;;;;;9.63;5.40;;;;;;;43.63;4.48;100905.41;4971438;28;105907;-74
2022/03/08 13:45:59;;;;;;;6.88;4.88;;;;;;;43.68;4.34;100895.84;4969733;28;106186;-65
2022/03/08 13:48:27;;;;;;;6.68;4.63;;;;;;;43.89;4.29;100898.94;4969392;28;105942;-65
2022/03/08 13:50:54;;;;;;;6.78;5.82;;;;;;;43.96;4.18;100895.41;4969216;28;105990;-75
2022/03/08 13:53:21;;;;;;;8.30;5.22;;;;;;;43.19;4.39;100898.34;4970807;28;105924;-72
2022/03/08 13:55:47;;;;;;;12.65;5.28;;;;;;;42.52;4.24;100904.38;4969926;28;106194;-75
2022/03/08 13:58:18;;;;;;;10.23;5.10;;;;;;;41.90;4.49;100907.97;4969588;28;106067;-78
2022/03/08 14:00:44;;;;;;;9.85;5.45;;;;;;;41.85;4.50;100895.06;4967402;28;106671;-72
2022/03/08 14:03:12;;;;;;;11.55;5.82;;;;;;;41.80;4.90;100902.94;4969879;28;106221;-74
2022/03/08 14:06:00;;;;;;;8.02;5.35;;;;;;;41.54;4.76;100899.56;4969168;28;106144;-70
2022/03/08 14:08:29;;;;;;;8.75;5.22;;;;;;;40.83;5.06;100901.41;4967618;28;106863;-64
2022/03/08 14:10:57;;;;;;;7.40;5.20;;;;;;;40.62;5.12;100894.13;4968536;28;105899;-71
2022/03/08 14:13:23;;;;;;;9.23;6.25;;;;;;;40.50;5.14;100894.19;4969466;28;106107;-69
2022/03/08 14:16:07;;;;;;;8.35;5.35;;;;;;;40.02;5.37;100891.22;4969544;28;106265;-73
2022/03/08 14:18:34;;;;;;;8.50;5.13;;;;;;;39.66;5.21;100904.94;4968927;28;105891;-76
2022/03/08 14:21:01;;;;;;;8.73;5.10;;;;;;;39.12;5.67;100899.59;4968777;28;105903;-79
2022/03/08 14:23:39;;;;;;;10.07;5.35;;;;;;;38.75;5.62;100895.63;4969359;28;105845;-66
2022/03/08 14:26:06;;;;;;;8.70;4.88;;;;;;;38.04;5.77;100891.03;4969112;28;105955;-71
2022/03/08 14:29:03;;;;;;;10.00;5.95;;;;;;;37.39;6.17;100891.31;4968797;28;106032;-66
2022/03/08 14:31:34;;;;;;;14.73;5.45;;;;;;;36.76;6.36;100889.91;4967964;28;106143;-69
2022/03/08 14:34:08;;;;;;;8.10;5.32;;;;;;;36.21;6.77;100891.47;4969489;28;106189;-66
2022/03/08 14:36:50;;;;;;;12.07;5.40;;;;;;;35.87;7.02;100893.09;4969039;28;105897;-76
2022/03/08 14:39:22;;;;;;;5.68;4.05;;;;;;;35.80;6.90;100887.22;4968421;28;107361;-75
2022/03/08 14:41:59;;;;;;;10.05;4.45;;;;;;;34.94;7.20;100886.63;4968094;28;106150;-72
2022/03/08 14:44:26;;;;;;;10.05;4.30;;;;;;;33.53;7.40;100892.97;4969482;28;105817;-69
2022/03/08 14:46:52;;;;;;;9.13;4.82;;;;;;;32.91;8.09;100885.03;4968298;28;106240;-67
2022/03/08 14:49:18;;;;;;;11.30;4.57;;;;;;;32.28;7.91;100887.19;4968405;28;106534;-68
2022/03/08 14:51:43;;;;;;;8.23;3.70;;;;;;;32.13;7.95;100884.66;4967911;28;106131;-65
2022/03/08 14:54:09;;;;;;;10.93;4.10;;;;;;;32.18;8.27;100888.19;4968913;28;106267;-70
2022/03/08 14:56:36;;;;;;;6.15;4.20;;;;;;;32.14;8.11;100883.53;4968343;28;106347;-70
2022/03/08 14:59:01;;;;;;;8.07;4.57;;;;;;;31.81;8.55;100888.97;4968051;28;106295;-64
2022/03/08 15:01:26;;;;;;;9.30;4.75;;;;;;;31.50;8.31;100884.66;4968254;28;106294;-69
2022/03/08 15:03:52;;;;;;;7.57;4.45;;;;;;;31.01;8.53;100883.00;4968962;28;105983;-68
2022/03/08 15:06:17;;;;;;;7.00;4.25;;;;;;;30.38;8.58;100888.19;4968095;28;109181;-67
2022/03/08 15:08:42;;;;;;;11.80;4.55;;;;;;;29.16;9.33;100891.25;4967733;28;106153;-71
2022/03/08 15:11:08;;;;;;;9.05;4.53;;;;;;;27.67;9.88;100880.97;4967365;28;115828;-74
2022/03/08 15:13:33;;;;;;;10.60;4.65;;;;;;;25.28;11.01;100883.72;4967220;28;106577;-73
2022/03/08 15:15:59;;;;;;;8.77;4.18;;;;;;;22.75;12.87;100885.41;4966520;28;106206;-71
2022/03/08 15:18:24;;;;;;;6.70;4.32;;;;;;;20.68;14.26;100883.22;4966847;28;107698;-70
2022/03/08 15:20:50;;;;;;;9.73;5.15;;;;;;;19.25;15.42;100886.81;4967604;28;105948;-73
2022/03/08 15:23:16;;;;;;;10.38;5.18;;;;;;;18.06;16.55;100891.06;4968261;28;106202;-71
2022/03/08 15:25:41;;;;;;;9.00;4.90;;;;;;;17.19;17.23;100899.50;4967384;28;106154;-73
2022/03/08 15:28:08;;;;;;;8.68;5.20;;;;;;;16.62;17.82;100900.47;4965334;28;106255;-71
2022/03/08 15:30:33;;;;;;;12.45;5.47;;;;;;;16.05;18.51;100893.06;4967193;28;106004;-73
2022/03/08 15:32:59;;;;;;;10.65;5.20;;;;;;;15.43;18.99;100896.97;4968072;28;106347;-71
2022/03/08 15:35:24;;;;;;;12.55;4.97;;;;;;;14.85;19.66;100902.91;4968118;28;106247;-71
2022/03/08 15:37:50;;;;;;;6.78;4.88;;;;;;;14.27;19.86;100902.50;4967580;28;112391;-71
2022/03/08 15:40:15;;;;;;;9.52;5.25;;;;;;;13.75;20.73;100895.91;4982561;28;108524;-70
2022/03/08 15:42:40;;;;;;;7.50;4.28;;;;;;;13.35;21.21;100895.88;4968747;28;105856;-71
2022/03/08 15:45:07;;;;;;;11.18;5.45;;;;;;;12.94;21.86;100897.72;4968478;28;106460;-73
2022/03/08 15:47:33;;;;;;;7.50;4.35;;;;;;;12.63;22.29;100901.06;4967691;28;107329;-70
2022/03/08 15:49:59;;;;;;;9.73;4.50;;;;;;;12.22;22.68;100901.00;4967260;28;105896;-68
2022/03/08 15:52:24;;;;;;;11.68;4.35;;;;;;;11.85;22.92;100903.91;4968111;28;106019;-72
2022/03/08 15:54:50;;;;;;;9.15;4.50;;;;;;;11.52;23.01;100906.41;4967157;28;106142;-74
2022/03/08 15:57:16;;;;;;;7.43;4.00;;;;;;;11.18;23.64;100906.38;4967695;28;106569;-73
2022/03/08 15:59:42;;;;;;;7.95;4.97;;;;;;;10.79;23.96;100912.91;4966866;28;106364;-78
2022/03/08 16:02:08;;;;;;;9.73;4.15;;;;;;;10.45;24.41;100921.59;4968551;28;106103;-72
2022/03/08 16:04:36;;;;;;;9.50;3.65;;;;;;;10.15;24.73;100925.41;4967291;28;106166;-73
2022/03/08 16:07:02;;;;;;;7.75;4.18;;;;;;;9.79;25.09;100918.19;4967544;28;106032;-74
2022/03/08 16:09:27;;;;;;;10.38;4.53;;;;;;;9.45;26.07;100912.59;4967795;28;105776;-74
2022/03/08 16:11:52;;;;;;;8.52;4.38;;;;;;;9.14;25.90;100918.97;4968636;28;105887;-73
2022/03/08 16:14:18;;;;;;;11.90;4.05;;;;;;;8.90;26.74;100923.88;4967790;28;106122;-74
2022/03/08 16:16:46;;;;;;;8.60;3.88;;;;;;;8.62;27.33;100921.97;4967491;28;106084;-72
2022/03/08 16:19:12;;;;;;;7.65;4.00;;;;;;;8.40;27.03;100917.69;4967143;28;105838;-72
2022/03/08 16:21:38;;;;;;;8.52;4.18;;;;;;;8.16;27.52;100923.41;4969757;28;106341;-72
2022/03/08 16:24:03;;;;;;;9.50;4.30;;;;;;;7.91;28.65;100922.94;4971311;28;106236;-71
2022/03/08 16:26:29;;;;;;;20.02;6.20;;;;;;;7.67;28.51;100920.59;4970528;28;106093;-73
2022/03/08 16:28:54;;;;;;;9.45;4.57;;;;;;;7.43;28.78;100919.06;4970387;28;106075;-72
2022/03/08 16:31:20;;;;;;;10.27;4.05;;;;;;;7.23;29.35;100917.28;4971187;28;106062;-73
2022/03/08 16:33:45;;;;;;;10.40;4.35;;;;;;;7.04;29.91;100912.72;4971324;28;106269;-71
2022/03/08 16:36:10;;;;;;;12.63;4.00;;;;;;;6.85;29.80;100916.91;4970870;28;105967;-71
2022/03/08 16:38:36;;;;;;;10.27;4.18;;;;;;;6.66;30.36;100920.25;4970750;28;105940;-73
2022/03/08 16:41:01;;;;;;;14.40;4.55;;;;;;;6.50;30.65;100922.50;4971481;28;106023;-73
2022/03/08 16:43:27;;;;;;;10.48;4.45;;;;;;;6.34;30.78;100917.59;4970922;28;106154;-72
2022/03/08 16:45:52;;;;;;;13.60;5.38;;;;;;;6.17;31.31;100929.56;4970813;28;106184;-72
2022/03/08 16:48:17;;;;;;;11.88;5.10;;;;;;;6.03;31.63;100925.38;4970207;28;106085;-71
2022/03/08 16:50:43;;;;;;;14.57;5.25;;;;;;;5.88;31.79;100932.69;4969982;28;105881;-75
2022/03/08 16:53:09;;;;;;;15.27;5.28;;;;;;;5.76;32.16;100934.50;4970454;28;106208;-73
2022/03/08 16:55:35;;;;;;;12.65;5.30;;;;;;;5.65;32.41;100929.22;4970640;28;107148;-74
2022/03/08 16:58:00;;;;;;;11.10;5.22;;;;;;;5.54;32.59;100940.63;4970698;28;105986;-74
2022/03/08 17:00:26;;;;;;;16.52;5.60;;;;;;;5.42;32.96;100948.50;4971133;28;105829;-73
2022/03/08 17:02:52;;;;;;;10.93;5.65;;;;;;;5.33;33.03;100953.66;4970638;28;105853;-70
2022/03/08 17:05:18;;;;;;;12.30;5.85;;;;;;;5.25;33.40;100954.28;4970385;28;105971;-70
2022/03/08 17:07:43;;;;;;;9.27;6.25;;;;;;;5.14;33.72;100956.88;4970410;28;106229;-74
2022/03/08 17:10:09;;;;;;;17.20;6.93;;;;;;;5.05;33.74;100953.97;4971291;28;106082;-71
2022/03/08 17:12:35;;;;;;;14.90;5.93;;;;;;;4.97;34.20;100960.78;4970296;28;106219;-70
2022/03/08 17:15:00;;;;;;;15.40;6.03;;;;;;;4.89;34.46;100964.00;4969713;28;106385;-74
2022/03/08 17:17:26;;;;;;;10.80;5.78;;;;;;;4.82;34.67;100962.78;4970162;28;105940;-73
2022/03/08 17:19:51;;;;;;;10.75;5.30;;;;;;;4.73;34.59;100969.59;4970891;28;105909;-73
2022/03/08 17:22:16;;;;;;;12.68;6.95;;;;;;;4.65;34.98;100967.50;4970553;28;106008;-73
2022/03/08 17:24:42;;;;;;;13.52;6.15;;;;;;;4.59;35.54;100965.31;4970401;28;106110;-67
2022/03/08 17:27:09;;;;;;;16.85;6.78;;;;;;;4.51;35.79;100965.88;4970348;28;105999;-71
2022/03/08 17:29:36;;;;;;;18.45;6.28;;;;;;;4.46;35.75;100967.19;4970884;28;105865;-72
2022/03/08 17:32:03;;;;;;;11.80;5.20;;;;;;;4.40;35.87;100974.56;4969701;28;106164;-72
2022/03/08 17:34:28;;;;;;;14.02;5.78;;;;;;;4.37;36.10;100974.81;4970248;28;105967;-73
2022/03/08 17:36:53;;;;;;;11.82;5.80;;;;;;;4.33;36.40;100973.34;4969521;28;111299;-74
2022/03/08 17:39:19;;;;;;;16.95;6.55;;;;;;;4.29;36.60;100971.88;4970462;28;105844;-74
2022/03/08 17:41:44;;;;;;;12.63;5.80;;;;;;;4.27;36.86;100973.75;4969802;28;106274;-73
2022/03/08 17:44:09;;;;;;;13.60;7.22;;;;;;;4.23;37.00;100981.03;4969093;28;114650;-70
2022/03/08 17:46:35;;;;;;;12.77;5.88;;;;;;;4.20;37.37;100983.06;4952316;28;106180;-73
2022/03/08 17:49:00;;;;;;;14.25;5.75;;;;;;;4.17;37.55;100985.91;4971123;28;106303;-76
2022/03/08 17:51:25;;;;;;;20.90;6.05;;;;;;;4.13;37.29;100984.44;4970570;28;106225;-76
2022/03/08 17:53:51;;;;;;;13.35;6.78;;;;;;;4.11;37.87;100983.72;4969805;28;106354;-77
2022/03/08 17:56:16;;;;;;;16.92;6.70;;;;;;;4.10;37.63;100987.31;4969596;28;106054;-75
2022/03/08 17:58:44;;;;;;;16.25;6.03;;;;;;;4.11;38.39;100983.72;4936455;28;107108;-70
2022/03/08 18:01:12;;;;;;;20.30;6.50;;;;;;;4.16;37.92;100981.63;4928987;28;106262;-74
2022/03/08 18:03:38;;;;;;;15.57;6.75;;;;;;;4.22;38.39;100981.16;4928747;28;106112;-74
2022/03/08 18:06:05;;;;;;;12.40;6.13;;;;;;;4.25;38.12;100986.22;4928705;28;106247;-72
2022/03/08 18:08:32;;;;;;;17.25;6.57;;;;;;;4.27;38.61;100989.59;4929406;28;106500;-69
2022/03/08 18:10:57;;;;;;;12.90;7.00;;;;;;;4.29;38.84;100998.25;4927990;28;106575;-74
2022/03/08 18:13:23;;;;;;;16.73;8.75;;;;;;;4.31;38.95;100995.50;4929065;28;106003;-74
2022/03/08 18:15:48;;;;;;;23.45;8.18;;;;;;;4.33;38.77;100993.59;4928869;28;106003;-70
2022/03/08 18:18:13;;;;;;;13.68;6.93;;;;;;;4.36;38.77;100999.50;4929205;28;106147;-70
2022/03/08 18:20:39;;;;;;;18.20;7.15;;;;;;;4.39;39.08;101001.91;4927631;28;105978;-73
2022/03/08 18:23:04;;;;;;;15.05;7.10;;;;;;;4.43;39.47;101007.81;4927757;28;106064;-69
2022/03/08 18:25:30;;;;;;;24.60;8.13;;;;;;;4.47;39.63;100998.72;4928079;28;106265;-70
2022/03/08 18:27:55;;;;;;;22.55;8.27;;;;;;;4.52;39.43;101001.84;4929031;28;106172;-73
2022/03/08 18:30:20;;;;;;;21.42;8.27;;;;;;;4.59;39.41;101002.25;4927668;28;106193;-67
2022/03/08 18:32:46;;;;;;;18.13;8.60;;;;;;;4.64;39.86;100999.28;4927951;28;106085;-69
2022/03/08 18:35:11;;;;;;;18.25;9.45;;;;;;;4.70;39.92;101012.03;4927553;28;105973;-71
2022/03/08 18:37:37;;;;;;;19.85;9.20;;;;;;;4.72;39.87;101003.03;4928695;28;106179;-69
2022/03/08 18:40:04;;;;;;;27.25;8.88;;;;;;;4.73;40.22;100996.00;4928408;28;106266;-68
2022/03/08 18:42:30;;;;;;;28.52;10.35;;;;;;;4.72;40.32;101003.03;4928067;28;106083;-70
2022/03/08 18:44:55;;;;;;;24.73;9.50;;;;;;;4.72;40.13;101007.50;4926389;28;106020;-72
2022/03/08 18:47:21;;;;;;;24.40;9.70;;;;;;;4.71;40.22;100988.16;4929349;28;106149;-70
2022/03/08 18:49:46;;;;;;;24.17;10.20;;;;;;;4.69;40.57;100989.25;4928111;28;106473;-69
2022/03/08 18:52:12;;;;;;;35.30;16.60;;;;;;;4.67;40.58;100991.16;4927436;28;106068;-69
2022/03/08 18:54:37;;;;;;;33.05;15.77;;;;;;;4.62;41.12;100988.00;4927931;28;105948;-72
2022/03/08 18:57:02;;;;;;;34.00;15.05;;;;;;;4.55;40.85;100982.31;4927652;28;106375;-74
2022/03/08 18:59:28;;;;;;;47.08;16.52;;;;;;;4.50;41.30;100989.75;4927426;28;106410;-73
2022/03/08 19:01:53;;;;;;;40.67;17.17;;;;;;;4.43;41.27;100991.97;4932121;28;114603;-67
2022/03/08 19:04:19;;;;;;;29.77;13.93;;;;;;;4.37;41.73;100989.78;4947668;28;106041;-70
